sensor_id;sensor_type;location;lat;lon;timestamp;pressure;altitude;pressure_sealevel;temperature;humidity
68941;BME280;55982;51.476;7.552;2022-11-15T00:01:48;99109.88;;;10.44;100.00
68941;BME280;55982;51.476;7.552;2022-11-15T00:04:14;99109.88;;;10.44;100.00
68941;BME280;55982;51.476;7.552;2022-11-15T00:06:39;99112.41;;;10.46;100.00
68941;BME280;55982;51.476;7.552;2022-11-15T00:09:05;99113.06;;;10.51;100.00
68941;BME280;55982;51.476;7.552;2022-11-15T00:11:30;99111.03;;;10.57;100.00
68941;BME280;55982;51.476;7.552;2022-11-15T00:13:57;99095.84;;;10.65;100.00
68941;BME280;55982;51.476;7.552;2022-11-15T00:16:23;99101.59;;;10.73;100.00
68941;BME280;55982;51.476;7.552;2022-11-15T00:18:48;99097.47;;;10.68;100.00
68941;BME280;55982;51.476;7.552;2022-11-15T00:21:14;99098.69;;;10.79;100.00
68941;BME280;55982;51.476;7.552;2022-11-15T00:23:40;99098.72;;;10.78;100.00
68941;BME280;55982;51.476;7.552;2022-11-15T00:26:06;99092.53;;;10.80;100.00
68941;BME280;55982;51.476;7.552;2022-11-15T00:28:31;99096.50;;;10.89;100.00
68941;BME280;55982;51.476;7.552;2022-11-15T00:31:04;99094.66;;;10.91;100.00
68941;BME280;55982;51.476;7.552;2022-11-15T00:33:30;99095.66;;;10.88;100.00
68941;BME280;55982;51.476;7.552;2022-11-15T00:36:14;99091.53;;;11.01;100.00
68941;BME280;55982;51.476;7.552;2022-11-15T00:38:40;99095.09;;;11.00;100.00
68941;BME280;55982;51.476;7.552;2022-11-15T00:41:07;99100.88;;;11.07;100.00
68941;BME280;55982;51.476;7.552;2022-11-15T00:43:33;99093.44;;;11.17;100.00
68941;BME280;55982;51.476;7.552;2022-11-15T00:45:59;99100.16;;;11.22;100.00
68941;BME280;55982;51.476;7.552;2022-11-15T00:48:24;99095.31;;;11.32;100.00
68941;BME280;55982;51.476;7.552;2022-11-15T00:50:50;99087.19;;;11.38;100.00
68941;BME280;55982;51.476;7.552;2022-11-15T00:53:16;99093.06;;;11.43;100.00
68941;BME280;55982;51.476;7.552;2022-11-15T00:55:42;99078.91;;;11.47;100.00
68941;BME280;55982;51.476;7.552;2022-11-15T00:58:07;99084.13;;;11.47;100.00
68941;BME280;55982;51.476;7.552;2022-11-15T01:00:33;99085.06;;;11.63;100.00
68941;BME280;55982;51.476;7.552;2022-11-15T01:03:00;99078.97;;;11.62;100.00
68941;BME280;55982;51.476;7.552;2022-11-15T01:05:25;99090.03;;;11.69;100.00
68941;BME280;55982;51.476;7.552;2022-11-15T01:07:52;99085.06;;;11.63;100.00
68941;BME280;55982;51.476;7.552;2022-11-15T01:10:18;99091.59;;;11.73;100.00
68941;BME280;55982;51.476;7.552;2022-11-15T01:12:43;99086.06;;;11.79;100.00
68941;BME280;55982;51.476;7.552;2022-11-15T01:15:09;99076.25;;;11.82;100.00
68941;BME280;55982;51.476;7.552;2022-11-15T01:17:34;99081.59;;;11.81;100.00
68941;BME280;55982;51.476;7.552;2022-11-15T01:19:59;99078.72;;;11.85;100.00
68941;BME280;55982;51.476;7.552;2022-11-15T01:22:25;99082.06;;;11.89;100.00
68941;BME280;55982;51.476;7.552;2022-11-15T01:24:50;99087.34;;;11.87;100.00
68941;BME280;55982;51.476;7.552;2022-11-15T01:27:16;99087.28;;;11.89;100.00
68941;BME280;55982;51.476;7.552;2022-11-15T01:29:42;99084.44;;;11.93;100.00
68941;BME280;55982;51.476;7.552;2022-11-15T01:32:07;99084.81;;;11.86;100.00
68941;BME280;55982;51.476;7.552;2022-11-15T01:34:32;99089.28;;;11.84;100.00
68941;BME280;55982;51.476;7.552;2022-11-15T01:36:58;99090.06;;;11.86;100.00
68941;BME280;55982;51.476;7.552;2022-11-15T01:39:24;99084.59;;;11.90;100.00
68941;BME280;55982;51.476;7.552;2022-11-15T01:41:49;99081.88;;;11.92;100.00
68941;BME280;55982;51.476;7.552;2022-11-15T01:47:01;99078.19;;;11.96;100.00
68941;BME280;55982;51.476;7.552;2022-11-15T01:49:30;99070.56;;;11.91;100.00
68941;BME280;55982;51.476;7.552;2022-11-15T01:51:58;99078.19;;;11.96;100.00
68941;BME280;55982;51.476;7.552;2022-11-15T01:54:24;99065.38;;;11.90;100.00
68941;BME280;55982;51.476;7.552;2022-11-15T01:56:59;99066.00;;;11.95;100.00
68941;BME280;55982;51.476;7.552;2022-11-15T01:59:26;99066.00;;;11.95;100.00
68941;BME280;55982;51.476;7.552;2022-11-15T02:01:51;99049.13;;;12.01;100.00
68941;BME280;55982;51.476;7.552;2022-11-15T02:04:22;99053.97;;;11.91;100.00
68941;BME280;55982;51.476;7.552;2022-11-15T02:06:49;99040.44;;;11.83;100.00
68941;BME280;55982;51.476;7.552;2022-11-15T02:09:14;99041.91;;;11.71;100.00
68941;BME280;55982;51.476;7.552;2022-11-15T02:11:40;99049.97;;;11.67;100.00
68941;BME280;55982;51.476;7.552;2022-11-15T02:14:07;99053.78;;;11.60;100.00
68941;BME280;55982;51.476;7.552;2022-11-15T02:22:37;99039.63;;;11.64;100.00
68941;BME280;55982;51.476;7.552;2022-11-15T02:25:36;99038.25;;;11.74;100.00
68941;BME280;55982;51.476;7.552;2022-11-15T02:31:11;99042.09;;;11.84;100.00
68941;BME280;55982;51.476;7.552;2022-11-15T02:39:04;99036.88;;;11.84;100.00
68941;BME280;55982;51.476;7.552;2022-11-15T02:41:48;99035.50;;;11.77;100.00
68941;BME280;55982;51.476;7.552;2022-11-15T02:44:26;99036.41;;;11.76;100.00
68941;BME280;55982;51.476;7.552;2022-11-15T02:47:04;99028.84;;;11.70;100.00
68941;BME280;55982;51.476;7.552;2022-11-15T02:49:39;99029.28;;;11.61;100.00
68941;BME280;55982;51.476;7.552;2022-11-15T02:52:05;99027.91;;;11.54;100.00
68941;BME280;55982;51.476;7.552;2022-11-15T02:54:33;99029.47;;;11.39;100.00
68941;BME280;55982;51.476;7.552;2022-11-15T02:57:10;99020.16;;;11.34;100.00
68941;BME280;55982;51.476;7.552;2022-11-15T03:04:53;99026.41;;;11.31;100.00
68941;BME280;55982;51.476;7.552;2022-11-15T03:18:12;99026.75;;;11.59;100.00
68941;BME280;55982;51.476;7.552;2022-11-15T03:20:42;99024.22;;;11.58;100.00
68941;BME280;55982;51.476;7.552;2022-11-15T03:23:09;99030.72;;;11.68;100.00
68941;BME280;55982;51.476;7.552;2022-11-15T03:25:41;99027.16;;;11.69;100.00
68941;BME280;55982;51.476;7.552;2022-11-15T03:28:10;99034.50;;;11.79;100.00
68941;BME280;55982;51.476;7.552;2022-11-15T03:30:37;99026.25;;;11.87;100.00
68941;BME280;55982;51.476;7.552;2022-11-15T03:33:05;99032.09;;;11.92;100.00
68941;BME280;55982;51.476;7.552;2022-11-15T03:35:35;99025.91;;;11.93;100.00
68941;BME280;55982;51.476;7.552;2022-11-15T03:38:24;99029.94;;;12.00;100.00
68941;BME280;55982;51.476;7.552;2022-11-15T03:41:01;99025.47;;;12.02;100.00
68941;BME280;55982;51.476;7.552;2022-11-15T03:43:42;99031.91;;;12.12;100.00
68941;BME280;55982;51.476;7.552;2022-11-15T03:46:21;99031.91;;;12.12;100.00
68941;BME280;55982;51.476;7.552;2022-11-15T03:48:56;99038.53;;;12.19;100.00
68941;BME280;55982;51.476;7.552;2022-11-15T03:51:23;99033.28;;;12.19;100.00
68941;BME280;55982;51.476;7.552;2022-11-15T03:53:48;99042.06;;;12.18;100.00
68941;BME280;55982;51.476;7.552;2022-11-15T03:56:13;99036.69;;;12.21;100.00
68941;BME280;55982;51.476;7.552;2022-11-15T03:58:39;99031.75;;;12.15;100.00
68941;BME280;55982;51.476;7.552;2022-11-15T04:01:04;99029.53;;;12.08;100.00
68941;BME280;55982;51.476;7.552;2022-11-15T04:03:29;99023.44;;;12.07;100.00
68941;BME280;55982;51.476;7.552;2022-11-15T04:05:55;99014.03;;;12.03;100.00
68941;BME280;55982;51.476;7.552;2022-11-15T04:08:20;99014.81;;;12.05;100.00
68941;BME280;55982;51.476;7.552;2022-11-15T04:10:48;99002.78;;;12.01;100.00
68941;BME280;55982;51.476;7.552;2022-11-15T04:13:14;99007.19;;;12.01;100.00
68941;BME280;55982;51.476;7.552;2022-11-15T04:15:39;98994.00;;;12.02;100.00
68941;BME280;55982;51.476;7.552;2022-11-15T04:18:04;99000.16;;;12.01;100.00
68941;BME280;55982;51.476;7.552;2022-11-15T04:20:30;98994.00;;;12.02;100.00
68941;BME280;55982;51.476;7.552;2022-11-15T04:23:17;98993.81;;;12.05;100.00
68941;BME280;55982;51.476;7.552;2022-11-15T04:26:07;98985.88;;;12.07;100.00
68941;BME280;55982;51.476;7.552;2022-11-15T04:28:34;98992.56;;;12.12;100.00
68941;BME280;55982;51.476;7.552;2022-11-15T04:30:59;98992.44;;;12.15;100.00
68941;BME280;55982;51.476;7.552;2022-11-15T04:33:25;98993.88;;;12.21;100.00
68941;BME280;55982;51.476;7.552;2022-11-15T04:35:51;98990.84;;;12.28;100.00
68941;BME280;55982;51.476;7.552;2022-11-15T04:38:36;98996.84;;;12.30;100.00
68941;BME280;55982;51.476;7.552;2022-11-15T04:41:01;98998.63;;;12.30;100.00
68941;BME280;55982;51.476;7.552;2022-11-15T04:43:27;98998.31;;;12.36;100.00
68941;BME280;55982;51.476;7.552;2022-11-15T04:45:52;98996.63;;;12.35;100.00
68941;BME280;55982;51.476;7.552;2022-11-15T04:48:18;98999.84;;;12.40;100.00
68941;BME280;55982;51.476;7.552;2022-11-15T04:50:43;98997.13;;;12.41;100.00
68941;BME280;55982;51.476;7.552;2022-11-15T04:53:08;98997.75;;;12.46;100.00
68941;BME280;55982;51.476;7.552;2022-11-15T04:55:34;98996.78;;;12.47;100.00
68941;BME280;55982;51.476;7.552;2022-11-15T04:58:00;98999.88;;;12.55;100.00
68941;BME280;55982;51.476;7.552;2022-11-15T05:00:27;99004.09;;;12.58;100.00
68941;BME280;55982;51.476;7.552;2022-11-15T05:02:52;98994.09;;;12.64;100.00
68941;BME280;55982;51.476;7.552;2022-11-15T05:05:37;98997.25;;;12.55;100.00
68941;BME280;55982;51.476;7.552;2022-11-15T05:08:03;99000.53;;;12.59;100.00
68941;BME280;55982;51.476;7.552;2022-11-15T05:10:28;98982.44;;;12.54;100.00
68941;BME280;55982;51.476;7.552;2022-11-15T05:12:53;98985.78;;;12.56;100.00
68941;BME280;55982;51.476;7.552;2022-11-15T05:15:19;98991.22;;;12.53;100.00
68941;BME280;55982;51.476;7.552;2022-11-15T05:17:44;98990.03;;;12.43;100.00
68941;BME280;55982;51.476;7.552;2022-11-15T05:20:10;98978.75;;;12.41;100.00
68941;BME280;55982;51.476;7.552;2022-11-15T05:22:36;98984.69;;;12.29;100.00
68941;BME280;55982;51.476;7.552;2022-11-15T05:25:01;98985.78;;;12.25;100.00
68941;BME280;55982;51.476;7.552;2022-11-15T05:27:27;98985.78;;;12.25;100.00
68941;BME280;55982;51.476;7.552;2022-11-15T05:29:52;98995.94;;;12.31;100.00
68941;BME280;55982;51.476;7.552;2022-11-15T05:32:17;98992.06;;;12.38;100.00
68941;BME280;55982;51.476;7.552;2022-11-15T05:34:43;98992.81;;;12.40;100.00
68941;BME280;55982;51.476;7.552;2022-11-15T05:37:08;98990.69;;;12.47;100.00
68941;BME280;55982;51.476;7.552;2022-11-15T05:39:34;98980.72;;;12.53;100.00
68941;BME280;55982;51.476;7.552;2022-11-15T05:42:06;98994.78;;;12.52;100.00
68941;BME280;55982;51.476;7.552;2022-11-15T05:44:33;98988.41;;;12.56;100.00
68941;BME280;55982;51.476;7.552;2022-11-15T05:47:02;98979.81;;;12.54;100.00
68941;BME280;55982;51.476;7.552;2022-11-15T05:49:31;98982.91;;;12.45;100.00
68941;BME280;55982;51.476;7.552;2022-11-15T05:51:59;98980.91;;;12.50;100.00
68941;BME280;55982;51.476;7.552;2022-11-15T05:54:25;98974.13;;;12.46;100.00
68941;BME280;55982;51.476;7.552;2022-11-15T05:56:50;98975.38;;;12.39;100.00
68941;BME280;55982;51.476;7.552;2022-11-15T05:59:16;98966.47;;;12.26;100.00
68941;BME280;55982;51.476;7.552;2022-11-15T06:01:43;98968.84;;;12.15;100.00
68941;BME280;55982;51.476;7.552;2022-11-15T06:04:08;98971.00;;;12.07;100.00
68941;BME280;55982;51.476;7.552;2022-11-15T06:06:34;98974.56;;;12.06;100.00
68941;BME280;55982;51.476;7.552;2022-11-15T06:08:59;98966.75;;;12.05;100.00
68941;BME280;55982;51.476;7.552;2022-11-15T06:11:25;98968.38;;;12.07;100.00
68941;BME280;55982;51.476;7.552;2022-11-15T06:13:50;98976.88;;;11.95;100.00
68941;BME280;55982;51.476;7.552;2022-11-15T06:16:16;98977.66;;;11.97;100.00
68941;BME280;55982;51.476;7.552;2022-11-15T06:18:41;98985.81;;;11.91;100.00
68941;BME280;55982;51.476;7.552;2022-11-15T06:21:06;98982.84;;;11.99;100.00
68941;BME280;55982;51.476;7.552;2022-11-15T06:23:33;98989.94;;;11.97;100.00
68941;BME280;55982;51.476;7.552;2022-11-15T06:26:00;99001.25;;;11.97;100.00
68941;BME280;55982;51.476;7.552;2022-11-15T06:28:29;99006.56;;;11.95;100.00
68941;BME280;55982;51.476;7.552;2022-11-15T06:30:55;99004.63;;;11.99;100.00
68941;BME280;55982;51.476;7.552;2022-11-15T06:33:21;99009.25;;;12.11;100.00
68941;BME280;55982;51.476;7.552;2022-11-15T06:35:49;99012.31;;;12.19;100.00
68941;BME280;55982;51.476;7.552;2022-11-15T06:38:15;99004.91;;;12.27;100.00
68941;BME280;55982;51.476;7.552;2022-11-15T06:40:40;99017.75;;;12.32;100.00
68941;BME280;55982;51.476;7.552;2022-11-15T06:43:06;99011.81;;;12.28;100.00
68941;BME280;55982;51.476;7.552;2022-11-15T06:45:31;99013.19;;;12.35;100.00
68941;BME280;55982;51.476;7.552;2022-11-15T06:47:58;99030.22;;;12.44;100.00
68941;BME280;55982;51.476;7.552;2022-11-15T06:50:23;99025.06;;;12.42;100.00
68941;BME280;55982;51.476;7.552;2022-11-15T06:52:48;99029.44;;;12.42;100.00
68941;BME280;55982;51.476;7.552;2022-11-15T06:55:14;99032.66;;;12.47;100.00
68941;BME280;55982;51.476;7.552;2022-11-15T06:57:47;99028.03;;;12.52;100.00
68941;BME280;55982;51.476;7.552;2022-11-15T07:00:13;99031.34;;;12.55;100.00
68941;BME280;55982;51.476;7.552;2022-11-15T07:02:38;99034.06;;;12.54;100.00
68941;BME280;55982;51.476;7.552;2022-11-15T07:05:04;99028.94;;;12.51;100.00
68941;BME280;55982;51.476;7.552;2022-11-15T07:07:30;99038.28;;;12.56;100.00
68941;BME280;55982;51.476;7.552;2022-11-15T07:09:55;99033.03;;;12.56;100.00
68941;BME280;55982;51.476;7.552;2022-11-15T07:12:20;99037.13;;;12.62;100.00
68941;BME280;55982;51.476;7.552;2022-11-15T07:14:46;99043.53;;;12.56;100.00
68941;BME280;55982;51.476;7.552;2022-11-15T07:17:11;99048.75;;;12.56;100.00
68941;BME280;55982;51.476;7.552;2022-11-15T07:19:36;99045.06;;;12.60;100.00
68941;BME280;55982;51.476;7.552;2022-11-15T07:22:02;99047.53;;;12.63;100.00
68941;BME280;55982;51.476;7.552;2022-11-15T07:24:27;99046.75;;;12.61;100.00
68941;BME280;55982;51.476;7.552;2022-11-15T07:26:52;99046.31;;;12.53;100.00
68941;BME280;55982;51.476;7.552;2022-11-15T07:29:18;99051.13;;;12.45;100.00
68941;BME280;55982;51.476;7.552;2022-11-15T07:31:43;99046.19;;;12.39;100.00
68941;BME280;55982;51.476;7.552;2022-11-15T07:34:08;99049.75;;;12.38;100.00
68941;BME280;55982;51.476;7.552;2022-11-15T07:36:34;99068.19;;;12.37;100.00
68941;BME280;55982;51.476;7.552;2022-11-15T07:39:00;99055.69;;;12.42;100.00
68941;BME280;55982;51.476;7.552;2022-11-15T07:41:25;99066.50;;;12.36;100.00
68941;BME280;55982;51.476;7.552;2022-11-15T07:43:51;99061.41;;;12.33;100.00
68941;BME280;55982;51.476;7.552;2022-11-15T07:46:17;99058.88;;;12.31;100.00
68941;BME280;55982;51.476;7.552;2022-11-15T07:48:43;99066.13;;;12.26;100.00
68941;BME280;55982;51.476;7.552;2022-11-15T07:51:11;99066.81;;;12.30;100.00
68941;BME280;55982;51.476;7.552;2022-11-15T07:53:38;99053.47;;;12.34;100.00
68941;BME280;55982;51.476;7.552;2022-11-15T07:56:06;99064.91;;;12.33;100.00
68941;BME280;55982;51.476;7.552;2022-11-15T07:58:31;99069.78;;;12.39;100.00
68941;BME280;55982;51.476;7.552;2022-11-15T08:00:57;99068.88;;;12.40;100.00
68941;BME280;55982;51.476;7.552;2022-11-15T08:03:22;99072.09;;;12.45;100.00
68941;BME280;55982;51.476;7.552;2022-11-15T08:05:50;99074.13;;;12.40;100.00
68941;BME280;55982;51.476;7.552;2022-11-15T08:08:16;99079.22;;;12.43;100.00
68941;BME280;55982;51.476;7.552;2022-11-15T08:10:41;99069.34;;;12.48;100.00
68941;BME280;55982;51.476;7.552;2022-11-15T08:13:10;99068.25;;;12.52;100.00
68941;BME280;55982;51.476;7.552;2022-11-15T08:15:36;99059.13;;;12.59;100.00
68941;BME280;55982;51.476;7.552;2022-11-15T08:18:05;99058.53;;;12.70;100.00
68941;BME280;55982;51.476;7.552;2022-11-15T08:20:31;99053.47;;;12.82;100.00
68941;BME280;55982;51.476;7.552;2022-11-15T08:22:57;99055.94;;;13.01;100.00
68941;BME280;55982;51.476;7.552;2022-11-15T08:25:24;99056.81;;;13.33;100.00
68941;BME280;55982;51.476;7.552;2022-11-15T08:27:56;99056.72;;;13.64;100.00
68941;BME280;55982;51.476;7.552;2022-11-15T08:30:23;99060.75;;;13.85;100.00
68941;BME280;55982;51.476;7.552;2022-11-15T08:32:49;99060.22;;;13.94;100.00
68941;BME280;55982;51.476;7.552;2022-11-15T08:35:15;99054.78;;;13.97;100.00
68941;BME280;55982;51.476;7.552;2022-11-15T08:37:41;99051.59;;;13.92;100.00
68941;BME280;55982;51.476;7.552;2022-11-15T08:40:06;99057.34;;;14.13;100.00
68941;BME280;55982;51.476;7.552;2022-11-15T08:42:32;99054.81;;;14.11;100.00
68941;BME280;55982;51.476;7.552;2022-11-15T08:44:58;99051.84;;;14.31;100.00
68941;BME280;55982;51.476;7.552;2022-11-15T08:47:23;99059.19;;;14.54;98.20
68941;BME280;55982;51.476;7.552;2022-11-15T08:49:49;99053.00;;;14.41;98.48
68941;BME280;55982;51.476;7.552;2022-11-15T08:52:15;99045.84;;;14.29;99.25
68941;BME280;55982;51.476;7.552;2022-11-15T08:54:40;99047.53;;;14.58;97.06
68941;BME280;55982;51.476;7.552;2022-11-15T08:57:06;99049.59;;;14.82;94.61
68941;BME280;55982;51.476;7.552;2022-11-15T08:59:31;99045.25;;;14.95;92.63
68941;BME280;55982;51.476;7.552;2022-11-15T09:01:57;99056.56;;;15.23;90.99
68941;BME280;55982;51.476;7.552;2022-11-15T09:04:22;99055.03;;;15.47;89.55
68941;BME280;55982;51.476;7.552;2022-11-15T09:06:48;99048.72;;;15.50;88.55
68941;BME280;55982;51.476;7.552;2022-11-15T09:09:13;99048.75;;;15.22;89.14
68941;BME280;55982;51.476;7.552;2022-11-15T09:11:39;99044.72;;;14.76;92.44
68941;BME280;55982;51.476;7.552;2022-11-15T09:14:04;99040.69;;;14.70;91.57
68941;BME280;55982;51.476;7.552;2022-11-15T09:16:30;99040.56;;;14.86;92.21
68941;BME280;55982;51.476;7.552;2022-11-15T09:18:56;99031.72;;;15.27;89.36
68941;BME280;55982;51.476;7.552;2022-11-15T09:21:22;99035.81;;;15.72;86.85
68941;BME280;55982;51.476;7.552;2022-11-15T09:23:50;99044.06;;;15.80;85.43
68941;BME280;55982;51.476;7.552;2022-11-15T09:26:16;99043.09;;;15.81;84.89
68941;BME280;55982;51.476;7.552;2022-11-15T09:28:41;99041.75;;;15.49;86.68
68941;BME280;55982;51.476;7.552;2022-11-15T09:31:07;99034.97;;;15.45;87.26
68941;BME280;55982;51.476;7.552;2022-11-15T09:33:33;99033.16;;;15.19;87.85
68941;BME280;55982;51.476;7.552;2022-11-15T09:36:06;99033.94;;;15.07;88.38
68941;BME280;55982;51.476;7.552;2022-11-15T09:38:32;99028.50;;;15.10;88.30
68941;BME280;55982;51.476;7.552;2022-11-15T09:48:54;99014.16;;;15.14;87.21
68941;BME280;55982;51.476;7.552;2022-11-15T09:51:50;99021.88;;;15.17;86.36
68941;BME280;55982;51.476;7.552;2022-11-15T09:57:18;99019.06;;;15.98;82.43
68941;BME280;55982;51.476;7.552;2022-11-15T10:05:10;99013.84;;;14.92;84.55
68941;BME280;55982;51.476;7.552;2022-11-15T10:10:23;99027.69;;;15.22;84.31
68941;BME280;55982;51.476;7.552;2022-11-15T10:12:51;99020.03;;;15.58;79.46
68941;BME280;55982;51.476;7.552;2022-11-15T10:15:18;99032.16;;;16.12;78.45
68941;BME280;55982;51.476;7.552;2022-11-15T10:18:08;99006.47;;;16.90;74.28
68941;BME280;55982;51.476;7.552;2022-11-15T10:23:10;98997.47;;;18.88;64.05
68941;BME280;55982;51.476;7.552;2022-11-15T10:25:36;98990.63;;;19.28;62.97
68941;BME280;55982;51.476;7.552;2022-11-15T10:28:36;98979.94;;;18.96;61.40
68941;BME280;55982;51.476;7.552;2022-11-15T10:31:01;98969.28;;;18.65;61.05
68941;BME280;55982;51.476;7.552;2022-11-15T10:33:30;98979.56;;;17.32;67.00
68941;BME280;55982;51.476;7.552;2022-11-15T10:36:18;98967.59;;;17.15;66.77
68941;BME280;55982;51.476;7.552;2022-11-15T10:41:13;98953.94;;;16.62;68.60
68941;BME280;55982;51.476;7.552;2022-11-15T10:43:38;98953.00;;;16.37;68.73
68941;BME280;55982;51.476;7.552;2022-11-15T10:46:21;98946.81;;;16.75;67.18
68941;BME280;55982;51.476;7.552;2022-11-15T10:48:47;98944.13;;;17.11;66.28
68941;BME280;55982;51.476;7.552;2022-11-15T10:51:27;98942.06;;;18.07;61.87
68941;BME280;55982;51.476;7.552;2022-11-15T10:53:56;98933.00;;;17.77;63.85
68941;BME280;55982;51.476;7.552;2022-11-15T10:56:24;98925.66;;;17.69;62.63
68941;BME280;55982;51.476;7.552;2022-11-15T10:58:55;98929.03;;;16.53;64.07
68941;BME280;55982;51.476;7.552;2022-11-15T11:01:28;98919.34;;;15.78;68.64
68941;BME280;55982;51.476;7.552;2022-11-15T11:06:24;98926.75;;;15.21;71.99
68941;BME280;55982;51.476;7.552;2022-11-15T11:09:02;98925.00;;;15.08;73.44
68941;BME280;55982;51.476;7.552;2022-11-15T11:14:23;98919.78;;;14.94;73.14
68941;BME280;55982;51.476;7.552;2022-11-15T11:17:02;98914.03;;;15.14;72.57
68941;BME280;55982;51.476;7.552;2022-11-15T11:37:24;98897.88;;;14.66;71.44
68941;BME280;55982;51.476;7.552;2022-11-15T11:40:14;98897.28;;;14.76;70.78
68941;BME280;55982;51.476;7.552;2022-11-15T11:45:19;98883.78;;;14.68;69.43
68941;BME280;55982;51.476;7.552;2022-11-15T11:50:27;98872.00;;;14.73;69.07
68941;BME280;55982;51.476;7.552;2022-11-15T11:55:44;98874.94;;;14.68;67.20
68941;BME280;55982;51.476;7.552;2022-11-15T11:58:43;98863.75;;;14.65;69.14
68941;BME280;55982;51.476;7.552;2022-11-15T12:01:30;98864.41;;;14.68;67.01
68941;BME280;55982;51.476;7.552;2022-11-15T12:04:29;98855.88;;;14.78;66.86
68941;BME280;55982;51.476;7.552;2022-11-15T12:07:14;98858.72;;;14.75;65.39
68941;BME280;55982;51.476;7.552;2022-11-15T12:09:51;98857.78;;;14.76;64.46
68941;BME280;55982;51.476;7.552;2022-11-15T12:12:35;98860.41;;;14.76;63.31
68941;BME280;55982;51.476;7.552;2022-11-15T12:15:09;98850.72;;;14.76;63.26
68941;BME280;55982;51.476;7.552;2022-11-15T12:17:38;98858.72;;;14.75;61.36
68941;BME280;55982;51.476;7.552;2022-11-15T12:25:42;98853.50;;;14.60;61.59
68941;BME280;55982;51.476;7.552;2022-11-15T12:30:53;98849.53;;;14.41;61.77
68941;BME280;55982;51.476;7.552;2022-11-15T12:33:39;98850.19;;;14.44;60.43
68941;BME280;55982;51.476;7.552;2022-11-15T12:39:00;98849.72;;;14.52;60.88
68941;BME280;55982;51.476;7.552;2022-11-15T12:41:30;98847.72;;;14.55;61.55
68941;BME280;55982;51.476;7.552;2022-11-15T12:43:57;98850.88;;;14.60;62.23
68941;BME280;55982;51.476;7.552;2022-11-15T12:59:55;98819.13;;;14.76;65.18
68941;BME280;55982;51.476;7.552;2022-11-15T13:02:39;98818.09;;;14.79;65.07
68941;BME280;55982;51.476;7.552;2022-11-15T13:17:45;98783.75;;;14.41;67.53
68941;BME280;55982;51.476;7.552;2022-11-15T13:20:21;98784.06;;;14.36;68.04
68941;BME280;55982;51.476;7.552;2022-11-15T13:28:00;98767.31;;;14.37;68.13
68941;BME280;55982;51.476;7.552;2022-11-15T13:30:30;98766.78;;;14.32;68.25
68941;BME280;55982;51.476;7.552;2022-11-15T13:33:09;98762.84;;;14.25;69.06
68941;BME280;55982;51.476;7.552;2022-11-15T13:35:40;98765.47;;;14.25;69.55
68941;BME280;55982;51.476;7.552;2022-11-15T13:38:06;98751.75;;;14.20;69.59
68941;BME280;55982;51.476;7.552;2022-11-15T13:40:36;98753.63;;;14.18;70.09
68941;BME280;55982;51.476;7.552;2022-11-15T13:43:27;98752.53;;;14.08;70.40
68941;BME280;55982;51.476;7.552;2022-11-15T13:46:19;98745.38;;;14.10;70.28
68941;BME280;55982;51.476;7.552;2022-11-15T13:48:46;98742.00;;;14.08;70.56
68941;BME280;55982;51.476;7.552;2022-11-15T13:56:44;98735.28;;;14.04;71.84
68941;BME280;55982;51.476;7.552;2022-11-15T14:00:30;98734.56;;;14.02;72.39
68941;BME280;55982;51.476;7.552;2022-11-15T14:02:17;98746.00;;;14.01;72.38
68941;BME280;55982;51.476;7.552;2022-11-15T14:04:50;98741.34;;;13.92;73.26
68941;BME280;55982;51.476;7.552;2022-11-15T14:07:25;98727.63;;;13.87;73.45
68941;BME280;55982;51.476;7.552;2022-11-15T14:09:51;98727.28;;;13.79;74.47
68941;BME280;55982;51.476;7.552;2022-11-15T14:12:32;98727.09;;;13.68;74.72
68941;BME280;55982;51.476;7.552;2022-11-15T14:15:00;98716.03;;;13.63;75.17
68941;BME280;55982;51.476;7.552;2022-11-15T14:19:54;98708.00;;;13.52;76.66
68941;BME280;55982;51.476;7.552;2022-11-15T14:27:39;98702.41;;;13.70;76.12
68941;BME280;55982;51.476;7.552;2022-11-15T14:30:04;98699.41;;;13.76;75.80
68941;BME280;55982;51.476;7.552;2022-11-15T14:32:48;98695.63;;;13.81;76.13
68941;BME280;55982;51.476;7.552;2022-11-15T14:35:20;98685.13;;;13.81;76.26
68941;BME280;55982;51.476;7.552;2022-11-15T14:37:46;98682.19;;;13.85;76.10
68941;BME280;55982;51.476;7.552;2022-11-15T14:40:15;98671.88;;;13.82;76.46
68941;BME280;55982;51.476;7.552;2022-11-15T14:42:41;98671.66;;;13.85;76.16
68941;BME280;55982;51.476;7.552;2022-11-15T14:45:15;98659.47;;;13.84;76.77
68941;BME280;55982;51.476;7.552;2022-11-15T14:47:42;98652.72;;;13.80;77.15
68941;BME280;55982;51.476;7.552;2022-11-15T14:50:18;98643.81;;;13.83;76.49
68941;BME280;55982;51.476;7.552;2022-11-15T14:52:44;98636.97;;;13.80;76.80
68941;BME280;55982;51.476;7.552;2022-11-15T14:55:23;98638.84;;;13.78;77.24
68941;BME280;55982;51.476;7.552;2022-11-15T14:57:49;98635.47;;;13.76;77.49
68941;BME280;55982;51.476;7.552;2022-11-15T15:00:16;98628.72;;;13.72;77.38
68941;BME280;55982;51.476;7.552;2022-11-15T15:02:43;98621.97;;;13.68;77.93
68941;BME280;55982;51.476;7.552;2022-11-15T15:05:18;98618.34;;;13.56;78.79
68941;BME280;55982;51.476;7.552;2022-11-15T15:07:44;98619.41;;;13.54;78.29
68941;BME280;55982;51.476;7.552;2022-11-15T15:10:09;98618.47;;;13.41;79.46
68941;BME280;55982;51.476;7.552;2022-11-15T15:12:35;98613.66;;;13.35;80.19
68941;BME280;55982;51.476;7.552;2022-11-15T15:15:00;98609.13;;;13.37;80.17
68941;BME280;55982;51.476;7.552;2022-11-15T15:17:26;98606.69;;;13.34;80.45
68941;BME280;55982;51.476;7.552;2022-11-15T15:19:52;98599.16;;;13.42;80.47
68941;BME280;55982;51.476;7.552;2022-11-15T15:22:19;98596.53;;;13.42;81.09
68941;BME280;55982;51.476;7.552;2022-11-15T15:24:47;98589.59;;;13.41;81.63
68941;BME280;55982;51.476;7.552;2022-11-15T15:27:13;98590.53;;;13.40;81.50